sensor_id;sensor_type;location;lat;lon;timestamp;temperature;humidity
21544;DHT22;10933;50.754;11.508;2023-05-10T00:00:25;13.80;99.90
21544;DHT22;10933;50.754;11.508;2023-05-10T00:02:50;13.80;99.90
21544;DHT22;10933;50.754;11.508;2023-05-10T00:05:16;14.20;99.90
21544;DHT22;10933;50.754;11.508;2023-05-10T00:07:42;14.20;99.90
21544;DHT22;10933;50.754;11.508;2023-05-10T00:10:10;14.30;99.90
21544;DHT22;10933;50.754;11.508;2023-05-10T00:12:37;14.10;99.90
21544;DHT22;10933;50.754;11.508;2023-05-10T00:15:03;14.10;99.90
21544;DHT22;10933;50.754;11.508;2023-05-10T00:17:29;13.60;99.90
21544;DHT22;10933;50.754;11.508;2023-05-10T00:19:55;13.30;99.90
21544;DHT22;10933;50.754;11.508;2023-05-10T00:22:20;13.10;99.90
21544;DHT22;10933;50.754;11.508;2023-05-10T00:24:46;12.80;99.90
21544;DHT22;10933;50.754;11.508;2023-05-10T00:27:12;12.90;99.90
21544;DHT22;10933;50.754;11.508;2023-05-10T00:29:38;13.00;99.90
21544;DHT22;10933;50.754;11.508;2023-05-10T00:32:04;13.00;99.90
21544;DHT22;10933;50.754;11.508;2023-05-10T00:34:31;12.80;99.90
21544;DHT22;10933;50.754;11.508;2023-05-10T00:36:56;12.90;99.90
21544;DHT22;10933;50.754;11.508;2023-05-10T00:39:22;13.30;99.90
21544;DHT22;10933;50.754;11.508;2023-05-10T00:41:48;13.50;99.90
21544;DHT22;10933;50.754;11.508;2023-05-10T00:44:13;13.50;99.90
21544;DHT22;10933;50.754;11.508;2023-05-10T00:46:39;13.30;99.90
21544;DHT22;10933;50.754;11.508;2023-05-10T00:49:06;13.20;99.90
21544;DHT22;10933;50.754;11.508;2023-05-10T00:51:32;13.20;99.90
21544;DHT22;10933;50.754;11.508;2023-05-10T00:53:58;13.20;99.90
21544;DHT22;10933;50.754;11.508;2023-05-10T00:56:25;13.50;99.90
21544;DHT22;10933;50.754;11.508;2023-05-10T00:58:52;13.60;99.90
21544;DHT22;10933;50.754;11.508;2023-05-10T01:01:17;12.90;99.90
21544;DHT22;10933;50.754;11.508;2023-05-10T01:03:45;13.00;99.90
21544;DHT22;10933;50.754;11.508;2023-05-10T01:06:12;12.80;99.90
21544;DHT22;10933;50.754;11.508;2023-05-10T01:08:39;12.60;99.90
21544;DHT22;10933;50.754;11.508;2023-05-10T01:11:06;12.60;99.90
21544;DHT22;10933;50.754;11.508;2023-05-10T01:13:39;12.60;99.90
21544;DHT22;10933;50.754;11.508;2023-05-10T01:16:08;12.80;99.90
21544;DHT22;10933;50.754;11.508;2023-05-10T01:18:40;12.70;99.90
21544;DHT22;10933;50.754;11.508;2023-05-10T01:21:35;12.50;99.90
21544;DHT22;10933;50.754;11.508;2023-05-10T01:27:34;12.80;99.90
21544;DHT22;10933;50.754;11.508;2023-05-10T01:31:00;13.10;99.90
21544;DHT22;10933;50.754;11.508;2023-05-10T01:33:54;12.90;99.90
21544;DHT22;10933;50.754;11.508;2023-05-10T01:36:31;12.90;99.90
21544;DHT22;10933;50.754;11.508;2023-05-10T01:39:32;12.70;99.90
21544;DHT22;10933;50.754;11.508;2023-05-10T01:42:13;12.60;99.90
21544;DHT22;10933;50.754;11.508;2023-05-10T01:44:57;12.70;99.90
21544;DHT22;10933;50.754;11.508;2023-05-10T01:47:31;12.60;99.90
21544;DHT22;10933;50.754;11.508;2023-05-10T01:50:04;12.60;99.90
21544;DHT22;10933;50.754;11.508;2023-05-10T01:52:41;12.50;99.90
21544;DHT22;10933;50.754;11.508;2023-05-10T01:55:14;12.60;99.90
21544;DHT22;10933;50.754;11.508;2023-05-10T01:57:43;12.50;99.90
21544;DHT22;10933;50.754;11.508;2023-05-10T02:00:12;12.50;99.90
21544;DHT22;10933;50.754;11.508;2023-05-10T02:02:44;12.50;99.90
21544;DHT22;10933;50.754;11.508;2023-05-10T02:05:13;12.40;99.90
21544;DHT22;10933;50.754;11.508;2023-05-10T02:07:41;12.50;99.90
21544;DHT22;10933;50.754;11.508;2023-05-10T02:10:09;12.60;99.90
21544;DHT22;10933;50.754;11.508;2023-05-10T02:12:41;12.60;99.90
21544;DHT22;10933;50.754;11.508;2023-05-10T02:15:09;12.70;99.90
21544;DHT22;10933;50.754;11.508;2023-05-10T02:17:37;13.10;99.90
21544;DHT22;10933;50.754;11.508;2023-05-10T02:20:06;13.50;99.90
21544;DHT22;10933;50.754;11.508;2023-05-10T02:22:34;13.50;99.90
21544;DHT22;10933;50.754;11.508;2023-05-10T02:25:02;13.10;99.90
21544;DHT22;10933;50.754;11.508;2023-05-10T02:27:29;12.90;99.90
21544;DHT22;10933;50.754;11.508;2023-05-10T02:29:56;12.40;99.90
21544;DHT22;10933;50.754;11.508;2023-05-10T02:32:25;12.60;99.90
21544;DHT22;10933;50.754;11.508;2023-05-10T02:34:53;12.70;99.90
21544;DHT22;10933;50.754;11.508;2023-05-10T02:37:21;12.80;99.90
21544;DHT22;10933;50.754;11.508;2023-05-10T02:39:49;13.20;99.90
21544;DHT22;10933;50.754;11.508;2023-05-10T02:42:19;13.30;99.90
21544;DHT22;10933;50.754;11.508;2023-05-10T02:44:54;13.40;99.90
21544;DHT22;10933;50.754;11.508;2023-05-10T02:47:24;13.30;99.90
21544;DHT22;10933;50.754;11.508;2023-05-10T02:49:51;13.50;99.90
21544;DHT22;10933;50.754;11.508;2023-05-10T02:52:21;13.60;99.90
21544;DHT22;10933;50.754;11.508;2023-05-10T02:54:54;13.50;99.90
21544;DHT22;10933;50.754;11.508;2023-05-10T02:57:27;13.60;99.90
21544;DHT22;10933;50.754;11.508;2023-05-10T02:59:57;13.60;99.90
21544;DHT22;10933;50.754;11.508;2023-05-10T03:02:22;13.60;99.90
21544;DHT22;10933;50.754;11.508;2023-05-10T03:04:48;13.50;99.90
21544;DHT22;10933;50.754;11.508;2023-05-10T03:07:14;13.50;99.90
21544;DHT22;10933;50.754;11.508;2023-05-10T03:09:41;13.70;99.90
21544;DHT22;10933;50.754;11.508;2023-05-10T03:12:11;13.60;99.90
21544;DHT22;10933;50.754;11.508;2023-05-10T03:15:08;13.50;99.90
21544;DHT22;10933;50.754;11.508;2023-05-10T03:17:52;13.60;99.90
21544;DHT22;10933;50.754;11.508;2023-05-10T03:20:29;13.50;99.90
21544;DHT22;10933;50.754;11.508;2023-05-10T03:23:09;13.50;99.90
21544;DHT22;10933;50.754;11.508;2023-05-10T03:25:39;13.60;99.90
21544;DHT22;10933;50.754;11.508;2023-05-10T03:28:09;13.60;99.90
21544;DHT22;10933;50.754;11.508;2023-05-10T03:30:35;13.70;99.90
21544;DHT22;10933;50.754;11.508;2023-05-10T03:33:05;13.50;99.90
21544;DHT22;10933;50.754;11.508;2023-05-10T03:35:31;13.50;99.90
21544;DHT22;10933;50.754;11.508;2023-05-10T03:37:57;13.40;99.90
21544;DHT22;10933;50.754;11.508;2023-05-10T03:40:24;13.40;99.90
21544;DHT22;10933;50.754;11.508;2023-05-10T03:42:51;13.40;99.90
21544;DHT22;10933;50.754;11.508;2023-05-10T03:45:17;13.40;99.90
21544;DHT22;10933;50.754;11.508;2023-05-10T03:47:42;13.20;99.90
21544;DHT22;10933;50.754;11.508;2023-05-10T03:50:08;13.10;99.90
21544;DHT22;10933;50.754;11.508;2023-05-10T03:52:35;13.00;99.90
21544;DHT22;10933;50.754;11.508;2023-05-10T03:55:01;13.10;99.90
21544;DHT22;10933;50.754;11.508;2023-05-10T03:57:28;12.60;99.90
21544;DHT22;10933;50.754;11.508;2023-05-10T03:59:54;12.30;99.90
21544;DHT22;10933;50.754;11.508;2023-05-10T04:02:20;12.40;99.90
21544;DHT22;10933;50.754;11.508;2023-05-10T04:04:46;12.60;99.90
21544;DHT22;10933;50.754;11.508;2023-05-10T04:07:12;12.70;99.90
21544;DHT22;10933;50.754;11.508;2023-05-10T04:09:37;12.80;99.90
21544;DHT22;10933;50.754;11.508;2023-05-10T04:12:03;12.90;99.90
21544;DHT22;10933;50.754;11.508;2023-05-10T04:14:29;12.80;99.90
21544;DHT22;10933;50.754;11.508;2023-05-10T04:16:55;12.80;99.90
21544;DHT22;10933;50.754;11.508;2023-05-10T04:19:22;12.80;99.90
21544;DHT22;10933;50.754;11.508;2023-05-10T04:21:48;12.90;99.90
21544;DHT22;10933;50.754;11.508;2023-05-10T04:24:13;12.80;99.90
21544;DHT22;10933;50.754;11.508;2023-05-10T04:26:39;12.80;99.90
21544;DHT22;10933;50.754;11.508;2023-05-10T04:29:05;13.00;99.90
21544;DHT22;10933;50.754;11.508;2023-05-10T04:31:31;13.10;99.90
21544;DHT22;10933;50.754;11.508;2023-05-10T04:33:56;13.10;99.90
21544;DHT22;10933;50.754;11.508;2023-05-10T04:36:22;13.10;99.90
21544;DHT22;10933;50.754;11.508;2023-05-10T04:38:48;13.10;99.90
21544;DHT22;10933;50.754;11.508;2023-05-10T04:41:13;13.00;99.90
21544;DHT22;10933;50.754;11.508;2023-05-10T04:43:39;12.90;99.90
21544;DHT22;10933;50.754;11.508;2023-05-10T04:46:06;12.90;99.90
21544;DHT22;10933;50.754;11.508;2023-05-10T04:48:34;12.90;99.90
21544;DHT22;10933;50.754;11.508;2023-05-10T04:51:00;13.00;99.90
21544;DHT22;10933;50.754;11.508;2023-05-10T04:53:26;12.80;99.90
21544;DHT22;10933;50.754;11.508;2023-05-10T04:55:52;12.80;99.90
21544;DHT22;10933;50.754;11.508;2023-05-10T04:58:17;12.80;99.90
21544;DHT22;10933;50.754;11.508;2023-05-10T05:00:43;12.80;99.90
21544;DHT22;10933;50.754;11.508;2023-05-10T05:03:09;12.80;99.90
21544;DHT22;10933;50.754;11.508;2023-05-10T05:05:35;12.90;99.90
21544;DHT22;10933;50.754;11.508;2023-05-10T05:08:00;13.10;99.90
21544;DHT22;10933;50.754;11.508;2023-05-10T05:10:26;13.00;99.90
21544;DHT22;10933;50.754;11.508;2023-05-10T05:12:52;13.20;99.90
21544;DHT22;10933;50.754;11.508;2023-05-10T05:15:18;13.20;99.90
21544;DHT22;10933;50.754;11.508;2023-05-10T05:17:43;13.30;99.90
21544;DHT22;10933;50.754;11.508;2023-05-10T05:20:10;13.20;99.90
21544;DHT22;10933;50.754;11.508;2023-05-10T05:22:36;13.30;99.90
21544;DHT22;10933;50.754;11.508;2023-05-10T05:25:02;13.30;99.90
21544;DHT22;10933;50.754;11.508;2023-05-10T05:27:29;13.30;99.90
21544;DHT22;10933;50.754;11.508;2023-05-10T05:29:56;13.10;99.90
21544;DHT22;10933;50.754;11.508;2023-05-10T05:32:23;13.00;99.90
21544;DHT22;10933;50.754;11.508;2023-05-10T05:34:49;13.00;99.90
21544;DHT22;10933;50.754;11.508;2023-05-10T05:37:17;13.10;99.90
21544;DHT22;10933;50.754;11.508;2023-05-10T05:39:44;13.20;99.90
21544;DHT22;10933;50.754;11.508;2023-05-10T05:42:12;13.30;99.90
21544;DHT22;10933;50.754;11.508;2023-05-10T05:44:39;13.50;99.90
21544;DHT22;10933;50.754;11.508;2023-05-10T05:47:05;13.50;99.90
21544;DHT22;10933;50.754;11.508;2023-05-10T05:49:31;13.50;99.90
21544;DHT22;10933;50.754;11.508;2023-05-10T05:52:01;13.40;99.90
21544;DHT22;10933;50.754;11.508;2023-05-10T05:54:28;13.20;99.90
21544;DHT22;10933;50.754;11.508;2023-05-10T05:56:55;13.30;99.90
21544;DHT22;10933;50.754;11.508;2023-05-10T05:59:22;13.10;99.90
21544;DHT22;10933;50.754;11.508;2023-05-10T06:01:48;13.10;99.90
21544;DHT22;10933;50.754;11.508;2023-05-10T06:04:15;13.00;99.90
21544;DHT22;10933;50.754;11.508;2023-05-10T06:06:44;13.10;99.90
21544;DHT22;10933;50.754;11.508;2023-05-10T06:09:10;13.20;99.90
21544;DHT22;10933;50.754;11.508;2023-05-10T06:11:36;13.30;99.90
21544;DHT22;10933;50.754;11.508;2023-05-10T06:14:03;13.30;99.90
21544;DHT22;10933;50.754;11.508;2023-05-10T06:16:30;13.30;99.90
21544;DHT22;10933;50.754;11.508;2023-05-10T06:18:56;13.40;99.90
21544;DHT22;10933;50.754;11.508;2023-05-10T06:21:25;13.20;99.90
21544;DHT22;10933;50.754;11.508;2023-05-10T06:23:50;13.30;99.90
21544;DHT22;10933;50.754;11.508;2023-05-10T06:26:16;13.20;99.90
21544;DHT22;10933;50.754;11.508;2023-05-10T06:28:42;13.40;99.90
21544;DHT22;10933;50.754;11.508;2023-05-10T06:31:08;13.50;99.90
21544;DHT22;10933;50.754;11.508;2023-05-10T06:33:34;13.70;99.90
21544;DHT22;10933;50.754;11.508;2023-05-10T06:36:00;13.90;99.90
21544;DHT22;10933;50.754;11.508;2023-05-10T06:38:26;13.80;99.90
21544;DHT22;10933;50.754;11.508;2023-05-10T06:40:55;14.00;99.90
21544;DHT22;10933;50.754;11.508;2023-05-10T06:43:21;14.00;99.90
21544;DHT22;10933;50.754;11.508;2023-05-10T06:45:48;13.80;99.90
21544;DHT22;10933;50.754;11.508;2023-05-10T06:48:17;13.80;99.90
21544;DHT22;10933;50.754;11.508;2023-05-10T06:50:43;13.90;99.90
21544;DHT22;10933;50.754;11.508;2023-05-10T06:53:09;13.70;99.90
21544;DHT22;10933;50.754;11.508;2023-05-10T06:55:35;13.80;99.90
21544;DHT22;10933;50.754;11.508;2023-05-10T06:58:01;13.90;99.90
21544;DHT22;10933;50.754;11.508;2023-05-10T07:00:29;13.90;99.90
21544;DHT22;10933;50.754;11.508;2023-05-10T07:02:55;13.90;99.90
21544;DHT22;10933;50.754;11.508;2023-05-10T07:05:21;14.10;99.90
21544;DHT22;10933;50.754;11.508;2023-05-10T07:07:47;14.30;99.90
21544;DHT22;10933;50.754;11.508;2023-05-10T07:10:13;14.30;99.90
21544;DHT22;10933;50.754;11.508;2023-05-10T07:12:39;14.20;99.90
21544;DHT22;10933;50.754;11.508;2023-05-10T07:15:05;14.00;99.90
21544;DHT22;10933;50.754;11.508;2023-05-10T07:17:31;13.90;99.90
21544;DHT22;10933;50.754;11.508;2023-05-10T07:19:58;14.10;99.90
21544;DHT22;10933;50.754;11.508;2023-05-10T07:22:25;14.10;99.90
21544;DHT22;10933;50.754;11.508;2023-05-10T07:24:51;14.30;99.90
21544;DHT22;10933;50.754;11.508;2023-05-10T07:27:17;14.20;99.90
21544;DHT22;10933;50.754;11.508;2023-05-10T07:29:42;14.10;99.90
21544;DHT22;10933;50.754;11.508;2023-05-10T07:32:08;14.40;99.90
21544;DHT22;10933;50.754;11.508;2023-05-10T07:34:34;14.40;99.90
21544;DHT22;10933;50.754;11.508;2023-05-10T07:37:00;14.40;99.90
21544;DHT22;10933;50.754;11.508;2023-05-10T07:39:27;14.30;99.90
21544;DHT22;10933;50.754;11.508;2023-05-10T07:41:53;14.50;99.90
21544;DHT22;10933;50.754;11.508;2023-05-10T07:44:19;14.30;99.90
21544;DHT22;10933;50.754;11.508;2023-05-10T07:46:46;14.20;99.90
21544;DHT22;10933;50.754;11.508;2023-05-10T07:49:12;14.70;99.90
